sensor_id;sensor_type;location;lat;lon;timestamp;pressure;altitude;pressure_sealevel;temperature;humidity
63946;BME280;50122;56.330;43.838;2023-05-19T00:01:20;101054.00;;;11.38;77.55
63946;BME280;50122;56.330;43.838;2023-05-19T00:03:56;101054.06;;;11.35;77.55
63946;BME280;50122;56.330;43.838;2023-05-19T00:06:33;101055.00;;;11.34;77.88
63946;BME280;50122;56.330;43.838;2023-05-19T00:09:09;101056.75;;;11.34;77.92
63946;BME280;50122;56.330;43.838;2023-05-19T00:11:37;101060.34;;;11.33;77.87
63946;BME280;50122;56.330;43.838;2023-05-19T00:14:10;101066.56;;;11.32;77.47
63946;BME280;50122;56.330;43.838;2023-05-19T00:16:40;101061.25;;;11.32;77.50
63946;BME280;50122;56.330;43.838;2023-05-19T00:19:07;101065.53;;;11.36;77.67
63946;BME280;50122;56.330;43.838;2023-05-19T00:21:36;101059.16;;;11.41;77.75
63946;BME280;50122;56.330;43.838;2023-05-19T00:24:06;101059.78;;;11.48;77.63
63946;BME280;50122;56.330;43.838;2023-05-19T00:26:36;101058.72;;;11.54;77.71
63946;BME280;50122;56.330;43.838;2023-05-19T00:29:02;101072.50;;;11.63;77.52
63946;BME280;50122;56.330;43.838;2023-05-19T00:31:29;101076.78;;;11.68;77.44
63946;BME280;50122;56.330;43.838;2023-05-19T00:33:57;101069.50;;;11.73;77.02
63946;BME280;50122;56.330;43.838;2023-05-19T00:36:26;101066.66;;;11.79;76.94
63946;BME280;50122;56.330;43.838;2023-05-19T00:38:56;101066.44;;;11.85;76.54
63946;BME280;50122;56.330;43.838;2023-05-19T00:41:25;101062.75;;;11.89;76.36
63946;BME280;50122;56.330;43.838;2023-05-19T00:43:52;101069.63;;;11.95;75.96
63946;BME280;50122;56.330;43.838;2023-05-19T00:46:22;101072.13;;;11.99;75.72
63946;BME280;50122;56.330;43.838;2023-05-19T00:48:48;101069.28;;;12.04;75.51
63946;BME280;50122;56.330;43.838;2023-05-19T00:51:15;101063.81;;;12.09;75.46
63946;BME280;50122;56.330;43.838;2023-05-19T00:53:43;101061.00;;;12.13;75.55
63946;BME280;50122;56.330;43.838;2023-05-19T00:56:20;101060.00;;;12.16;74.93
63946;BME280;50122;56.330;43.838;2023-05-19T00:58:50;101060.94;;;12.15;75.13
63946;BME280;50122;56.330;43.838;2023-05-19T01:01:20;101063.72;;;12.12;74.68
63946;BME280;50122;56.330;43.838;2023-05-19T01:03:49;101070.84;;;12.10;75.07
63946;BME280;50122;56.330;43.838;2023-05-19T01:06:17;101060.41;;;12.05;74.87
63946;BME280;50122;56.330;43.838;2023-05-19T01:08:44;101072.88;;;12.03;75.13
63946;BME280;50122;56.330;43.838;2023-05-19T01:11:14;101068.44;;;12.04;74.97
63946;BME280;50122;56.330;43.838;2023-05-19T01:13:41;101069.28;;;12.04;75.13
63946;BME280;50122;56.330;43.838;2023-05-19T01:16:28;101058.75;;;12.03;74.97
63946;BME280;50122;56.330;43.838;2023-05-19T01:19:09;101065.47;;;12.11;74.67
63946;BME280;50122;56.330;43.838;2023-05-19T01:22:11;101058.06;;;12.21;74.80
63946;BME280;50122;56.330;43.838;2023-05-19T01:33:06;101071.06;;;12.27;75.10
63946;BME280;50122;56.330;43.838;2023-05-19T01:35:37;101059.28;;;12.34;74.64
63946;BME280;50122;56.330;43.838;2023-05-19T01:38:09;101065.00;;;12.47;74.04
63946;BME280;50122;56.330;43.838;2023-05-19T01:40:37;101069.75;;;12.61;73.62
63946;BME280;50122;56.330;43.838;2023-05-19T01:43:10;101056.94;;;12.73;73.13
63946;BME280;50122;56.330;43.838;2023-05-19T01:45:38;101070.56;;;12.85;72.93
63946;BME280;50122;56.330;43.838;2023-05-19T01:48:06;101070.03;;;12.98;72.57
63946;BME280;50122;56.330;43.838;2023-05-19T01:50:36;101069.63;;;13.09;72.20
63946;BME280;50122;56.330;43.838;2023-05-19T01:53:03;101067.59;;;13.14;72.25
63946;BME280;50122;56.330;43.838;2023-05-19T01:55:34;101061.31;;;13.16;72.03
63946;BME280;50122;56.330;43.838;2023-05-19T02:00:59;101058.13;;;13.29;71.90
63946;BME280;50122;56.330;43.838;2023-05-19T02:06:53;101055.59;;;13.48;71.72
63946;BME280;50122;56.330;43.838;2023-05-19T02:12:26;101050.19;;;13.70;71.33
63946;BME280;50122;56.330;43.838;2023-05-19T02:15:21;101053.09;;;13.84;70.82
63946;BME280;50122;56.330;43.838;2023-05-19T02:17:50;101049.72;;;14.00;69.87
63946;BME280;50122;56.330;43.838;2023-05-19T02:20:24;101039.50;;;14.10;69.11
63946;BME280;50122;56.330;43.838;2023-05-19T02:22:52;101042.75;;;14.16;68.22
63946;BME280;50122;56.330;43.838;2023-05-19T02:25:21;101042.63;;;14.19;67.90
63946;BME280;50122;56.330;43.838;2023-05-19T02:27:53;101043.28;;;14.24;68.14
63946;BME280;50122;56.330;43.838;2023-05-19T02:30:24;101046.38;;;14.34;67.85
63946;BME280;50122;56.330;43.838;2023-05-19T02:32:55;101052.00;;;14.46;67.83
63946;BME280;50122;56.330;43.838;2023-05-19T02:35:22;101051.28;;;14.61;67.84
63946;BME280;50122;56.330;43.838;2023-05-19T02:37:56;101050.66;;;14.75;67.67
63946;BME280;50122;56.330;43.838;2023-05-19T02:40:26;101049.19;;;14.87;67.01
63946;BME280;50122;56.330;43.838;2023-05-19T02:42:57;101051.16;;;15.01;66.97
63946;BME280;50122;56.330;43.838;2023-05-19T02:45:23;101049.97;;;15.06;66.44
63946;BME280;50122;56.330;43.838;2023-05-19T02:47:53;101047.25;;;15.08;66.41
63946;BME280;50122;56.330;43.838;2023-05-19T02:50:20;101047.38;;;15.05;66.47
63946;BME280;50122;56.330;43.838;2023-05-19T02:52:47;101047.16;;;15.09;66.23
63946;BME280;50122;56.330;43.838;2023-05-19T02:55:14;101058.28;;;15.18;65.84
63946;BME280;50122;56.330;43.838;2023-05-19T02:57:43;101045.44;;;15.26;65.18
63946;BME280;50122;56.330;43.838;2023-05-19T03:00:11;101050.91;;;15.40;64.76
63946;BME280;50122;56.330;43.838;2023-05-19T03:02:38;101045.88;;;15.52;64.69
63946;BME280;50122;56.330;43.838;2023-05-19T03:05:09;101041.63;;;15.65;64.34
63946;BME280;50122;56.330;43.838;2023-05-19T03:07:36;101044.59;;;15.76;63.01
63946;BME280;50122;56.330;43.838;2023-05-19T03:10:03;101043.94;;;15.89;62.50
63946;BME280;50122;56.330;43.838;2023-05-19T03:12:32;101047.06;;;15.97;60.48
63946;BME280;50122;56.330;43.838;2023-05-19T03:14:59;101043.13;;;16.04;59.94
63946;BME280;50122;56.330;43.838;2023-05-19T03:17:26;101044.31;;;16.14;58.47
63946;BME280;50122;56.330;43.838;2023-05-19T03:19:54;101045.47;;;16.26;57.08
63946;BME280;50122;56.330;43.838;2023-05-19T03:22:21;101044.09;;;16.35;55.73
63946;BME280;50122;56.330;43.838;2023-05-19T03:24:47;101043.56;;;16.44;54.56
63946;BME280;50122;56.330;43.838;2023-05-19T03:27:16;101042.28;;;16.52;54.30
63946;BME280;50122;56.330;43.838;2023-05-19T03:29:43;101046.84;;;16.65;54.68
63946;BME280;50122;56.330;43.838;2023-05-19T03:32:09;101042.97;;;16.71;53.05
63946;BME280;50122;56.330;43.838;2023-05-19T03:34:36;101043.28;;;16.65;53.07
63946;BME280;50122;56.330;43.838;2023-05-19T03:37:03;101045.28;;;16.61;53.84
63946;BME280;50122;56.330;43.838;2023-05-19T03:39:30;101038.41;;;16.57;54.06
63946;BME280;50122;56.330;43.838;2023-05-19T03:41:56;101045.88;;;16.50;54.08
63946;BME280;50122;56.330;43.838;2023-05-19T03:44:23;101050.63;;;16.45;53.72
63946;BME280;50122;56.330;43.838;2023-05-19T03:46:50;101045.53;;;16.41;53.14
63946;BME280;50122;56.330;43.838;2023-05-19T03:49:18;101044.25;;;16.32;52.30
63946;BME280;50122;56.330;43.838;2023-05-19T03:51:44;101041.94;;;16.26;52.47
63946;BME280;50122;56.330;43.838;2023-05-19T03:54:11;101037.72;;;16.22;52.39
63946;BME280;50122;56.330;43.838;2023-05-19T03:56:41;101037.97;;;16.17;51.95
63946;BME280;50122;56.330;43.838;2023-05-19T03:59:09;101035.47;;;16.14;51.99
63946;BME280;50122;56.330;43.838;2023-05-19T04:01:37;101045.38;;;16.12;52.19
63946;BME280;50122;56.330;43.838;2023-05-19T04:04:04;101046.50;;;16.08;52.65
63946;BME280;50122;56.330;43.838;2023-05-19T04:06:31;101044.00;;;16.05;53.29
63946;BME280;50122;56.330;43.838;2023-05-19T04:09:01;101045.78;;;16.04;53.43
63946;BME280;50122;56.330;43.838;2023-05-19T04:11:29;101037.53;;;16.09;53.65
63946;BME280;50122;56.330;43.838;2023-05-19T04:13:56;101043.66;;;16.11;53.98
63946;BME280;50122;56.330;43.838;2023-05-19T04:16:22;101034.63;;;16.13;53.80
63946;BME280;50122;56.330;43.838;2023-05-19T04:18:49;101033.50;;;16.18;53.70
63946;BME280;50122;56.330;43.838;2023-05-19T04:21:16;101036.78;;;16.23;53.94
63946;BME280;50122;56.330;43.838;2023-05-19T04:23:43;101044.19;;;16.34;54.20
63946;BME280;50122;56.330;43.838;2023-05-19T04:26:11;101042.72;;;16.44;54.19
63946;BME280;50122;56.330;43.838;2023-05-19T04:28:40;101038.66;;;16.53;54.39
63946;BME280;50122;56.330;43.838;2023-05-19T04:31:07;101040.72;;;16.63;54.93
63946;BME280;50122;56.330;43.838;2023-05-19T04:33:39;101042.00;;;16.72;54.94
63946;BME280;50122;56.330;43.838;2023-05-19T04:36:07;101038.03;;;16.79;54.63
63946;BME280;50122;56.330;43.838;2023-05-19T04:38:36;101040.19;;;16.89;54.78
63946;BME280;50122;56.330;43.838;2023-05-19T04:41:05;101040.41;;;17.00;54.08
63946;BME280;50122;56.330;43.838;2023-05-19T04:43:36;101046.84;;;17.12;53.14
63946;BME280;50122;56.330;43.838;2023-05-19T04:46:07;101032.84;;;17.23;52.34
63946;BME280;50122;56.330;43.838;2023-05-19T04:48:39;101036.69;;;17.33;52.73
63946;BME280;50122;56.330;43.838;2023-05-19T04:51:06;101031.66;;;17.43;52.37
63946;BME280;50122;56.330;43.838;2023-05-19T04:53:33;101039.03;;;17.53;52.80
63946;BME280;50122;56.330;43.838;2023-05-19T04:56:00;101029.59;;;17.62;52.46
63946;BME280;50122;56.330;43.838;2023-05-19T04:58:27;101028.16;;;17.71;52.19
63946;BME280;50122;56.330;43.838;2023-05-19T05:00:55;101023.25;;;17.78;52.20
63946;BME280;50122;56.330;43.838;2023-05-19T05:03:22;101030.63;;;17.88;51.45
63946;BME280;50122;56.330;43.838;2023-05-19T05:05:49;101027.50;;;17.96;51.46
63946;BME280;50122;56.330;43.838;2023-05-19T05:08:16;101025.41;;;18.01;51.64
63946;BME280;50122;56.330;43.838;2023-05-19T05:10:51;101030.25;;;18.09;51.51
63946;BME280;50122;56.330;43.838;2023-05-19T05:13:21;101026.34;;;18.15;51.34
63946;BME280;50122;56.330;43.838;2023-05-19T05:15:48;101025.81;;;18.22;51.39
63946;BME280;50122;56.330;43.838;2023-05-19T05:18:15;101032.41;;;18.31;51.93
63946;BME280;50122;56.330;43.838;2023-05-19T05:20:44;101024.00;;;18.37;51.41
63946;BME280;50122;56.330;43.838;2023-05-19T05:23:14;101021.75;;;18.44;51.57
63946;BME280;50122;56.330;43.838;2023-05-19T05:25:42;101028.44;;;18.51;51.02
63946;BME280;50122;56.330;43.838;2023-05-19T05:28:10;101025.81;;;18.64;50.60
63946;BME280;50122;56.330;43.838;2023-05-19T05:30:37;101034.66;;;18.79;51.00
63946;BME280;50122;56.330;43.838;2023-05-19T05:33:07;101029.06;;;18.97;49.56
63946;BME280;50122;56.330;43.838;2023-05-19T05:35:35;101033.38;;;19.12;49.61
63946;BME280;50122;56.330;43.838;2023-05-19T05:38:01;101029.53;;;19.29;49.79
63946;BME280;50122;56.330;43.838;2023-05-19T05:40:33;101030.09;;;19.47;48.60
63946;BME280;50122;56.330;43.838;2023-05-19T05:43:02;101025.03;;;19.68;48.59
63946;BME280;50122;56.330;43.838;2023-05-19T05:45:28;101020.97;;;19.88;48.73
63946;BME280;50122;56.330;43.838;2023-05-19T05:47:56;101021.28;;;20.09;48.42
63946;BME280;50122;56.330;43.838;2023-05-19T05:50:34;101023.00;;;20.35;48.19
63946;BME280;50122;56.330;43.838;2023-05-19T05:53:05;101028.44;;;20.46;48.07
63946;BME280;50122;56.330;43.838;2023-05-19T05:55:35;101026.44;;;20.61;47.98
63946;BME280;50122;56.330;43.838;2023-05-19T05:58:01;101029.75;;;20.77;47.54
63946;BME280;50122;56.330;43.838;2023-05-19T06:00:32;101025.28;;;20.89;47.21
63946;BME280;50122;56.330;43.838;2023-05-19T06:03:03;101027.13;;;21.00;47.70
63946;BME280;50122;56.330;43.838;2023-05-19T06:05:37;101025.34;;;21.12;47.74
63946;BME280;50122;56.330;43.838;2023-05-19T06:08:09;101024.41;;;21.24;47.91
63946;BME280;50122;56.330;43.838;2023-05-19T06:10:38;101026.03;;;21.38;47.72
63946;BME280;50122;56.330;43.838;2023-05-19T06:13:09;101024.22;;;21.50;47.46
63946;BME280;50122;56.330;43.838;2023-05-19T06:15:39;101030.72;;;21.59;47.53
63946;BME280;50122;56.330;43.838;2023-05-19T06:18:05;101027.78;;;21.62;47.91
63946;BME280;50122;56.330;43.838;2023-05-19T06:20:32;101034.88;;;21.63;47.60
63946;BME280;50122;56.330;43.838;2023-05-19T06:23:04;101026.09;;;21.61;47.97
63946;BME280;50122;56.330;43.838;2023-05-19T06:25:32;101022.78;;;21.68;48.20
63946;BME280;50122;56.330;43.838;2023-05-19T06:28:00;101018.50;;;21.77;48.78
63946;BME280;50122;56.330;43.838;2023-05-19T06:30:30;101024.28;;;21.84;49.91
63946;BME280;50122;56.330;43.838;2023-05-19T06:32:57;101030.38;;;21.86;50.38
63946;BME280;50122;56.330;43.838;2023-05-19T06:35:24;101035.38;;;21.91;50.81
63946;BME280;50122;56.330;43.838;2023-05-19T06:37:51;101028.53;;;21.98;51.21
63946;BME280;50122;56.330;43.838;2023-05-19T06:40:21;101032.69;;;22.02;51.64
63946;BME280;50122;56.330;43.838;2023-05-19T06:42:48;101036.84;;;22.06;52.25
63946;BME280;50122;56.330;43.838;2023-05-19T06:45:15;101037.69;;;22.07;52.70
63946;BME280;50122;56.330;43.838;2023-05-19T06:47:45;101037.81;;;22.05;53.69
63946;BME280;50122;56.330;43.838;2023-05-19T06:50:16;101038.56;;;22.07;53.01
63946;BME280;50122;56.330;43.838;2023-05-19T06:52:43;101035.50;;;22.12;53.63
63946;BME280;50122;56.330;43.838;2023-05-19T06:55:12;101037.44;;;22.10;53.25
63946;BME280;50122;56.330;43.838;2023-05-19T06:57:44;101047.88;;;22.03;53.13
63946;BME280;50122;56.330;43.838;2023-05-19T07:00:16;101046.88;;;22.04;52.26
63946;BME280;50122;56.330;43.838;2023-05-19T07:02:58;101043.47;;;22.02;52.85
63946;BME280;50122;56.330;43.838;2023-05-19T07:05:37;101045.31;;;22.01;52.73
63946;BME280;50122;56.330;43.838;2023-05-19T07:08:04;101058.00;;;21.99;53.01
63946;BME280;50122;56.330;43.838;2023-05-19T07:10:32;101060.56;;;22.01;52.86
63946;BME280;50122;56.330;43.838;2023-05-19T07:13:01;101052.16;;;22.06;52.69
63946;BME280;50122;56.330;43.838;2023-05-19T07:15:28;101048.47;;;22.07;51.64
63946;BME280;50122;56.330;43.838;2023-05-19T07:17:58;101056.78;;;22.15;51.42
63946;BME280;50122;56.330;43.838;2023-05-19T07:20:30;101057.25;;;22.20;51.85
63946;BME280;50122;56.330;43.838;2023-05-19T07:22:59;101055.91;;;22.37;51.39
63946;BME280;50122;56.330;43.838;2023-05-19T07:25:31;101061.16;;;22.50;50.23
63946;BME280;50122;56.330;43.838;2023-05-19T07:28:00;101063.47;;;22.54;49.64
63946;BME280;50122;56.330;43.838;2023-05-19T07:30:30;101070.31;;;22.70;50.00
63946;BME280;50122;56.330;43.838;2023-05-19T07:33:00;101068.72;;;22.67;49.42
63946;BME280;50122;56.330;43.838;2023-05-19T07:35:32;101068.97;;;22.64;49.80
63946;BME280;50122;56.330;43.838;2023-05-19T07:37:58;101066.38;;;22.74;47.58
63946;BME280;50122;56.330;43.838;2023-05-19T07:40:25;101070.91;;;22.74;46.17
63946;BME280;50122;56.330;43.838;2023-05-19T07:42:55;101065.53;;;22.74;46.34
63946;BME280;50122;56.330;43.838;2023-05-19T07:45:24;101075.16;;;22.76;45.44
63946;BME280;50122;56.330;43.838;2023-05-19T07:47:52;101087.78;;;22.87;44.61
63946;BME280;50122;56.330;43.838;2023-05-19T07:50:22;101075.50;;;22.94;44.47
63946;BME280;50122;56.330;43.838;2023-05-19T07:52:49;101078.22;;;23.15;45.56
63946;BME280;50122;56.330;43.838;2023-05-19T07:55:17;101089.38;;;23.43;45.53
63946;BME280;50122;56.330;43.838;2023-05-19T07:57:51;101078.25;;;23.36;46.66
63946;BME280;50122;56.330;43.838;2023-05-19T08:00:19;101083.88;;;23.45;47.41
63946;BME280;50122;56.330;43.838;2023-05-19T08:02:46;101094.81;;;23.74;47.08
63946;BME280;50122;56.330;43.838;2023-05-19T08:05:13;101080.22;;;23.76;46.45
63946;BME280;50122;56.330;43.838;2023-05-19T08:07:43;101089.09;;;23.88;46.60
63946;BME280;50122;56.330;43.838;2023-05-19T08:10:09;101092.31;;;23.82;47.13
63946;BME280;50122;56.330;43.838;2023-05-19T08:12:38;101093.66;;;23.67;47.12
63946;BME280;50122;56.330;43.838;2023-05-19T08:15:05;101095.50;;;23.45;46.74
63946;BME280;50122;56.330;43.838;2023-05-19T08:17:38;101087.59;;;23.32;48.00
63946;BME280;50122;56.330;43.838;2023-05-19T08:20:08;101087.28;;;23.68;47.58
63946;BME280;50122;56.330;43.838;2023-05-19T08:22:43;101088.19;;;23.99;47.20
63946;BME280;50122;56.330;43.838;2023-05-19T08:25:12;101084.78;;;24.07;46.49
63946;BME280;50122;56.330;43.838;2023-05-19T08:27:39;101092.47;;;24.12;46.24
63946;BME280;50122;56.330;43.838;2023-05-19T08:30:12;101090.94;;;24.19;44.94
63946;BME280;50122;56.330;43.838;2023-05-19T08:32:41;101094.09;;;24.24;44.73
63946;BME280;50122;56.330;43.838;2023-05-19T08:35:09;101092.94;;;24.17;44.97
63946;BME280;50122;56.330;43.838;2023-05-19T08:37:38;101108.50;;;24.03;45.36
63946;BME280;50122;56.330;43.838;2023-05-19T08:40:09;101108.94;;;24.08;45.14
63946;BME280;50122;56.330;43.838;2023-05-19T08:42:46;101099.31;;;24.16;45.04
63946;BME280;50122;56.330;43.838;2023-05-19T08:45:15;101099.28;;;24.47;45.31
63946;BME280;50122;56.330;43.838;2023-05-19T08:47:45;101099.13;;;24.89;43.86
63946;BME280;50122;56.330;43.838;2023-05-19T08:50:16;101099.94;;;24.79;43.97
63946;BME280;50122;56.330;43.838;2023-05-19T08:58:17;101093.56;;;25.29;43.50
63946;BME280;50122;56.330;43.838;2023-05-19T09:00:49;101095.41;;;25.48;43.55
63946;BME280;50122;56.330;43.838;2023-05-19T09:03:17;101103.97;;;25.44;43.00
63946;BME280;50122;56.330;43.838;2023-05-19T09:05:54;101102.38;;;25.22;43.84
63946;BME280;50122;56.330;43.838;2023-05-19T09:08:26;101112.06;;;25.14;43.51
63946;BME280;50122;56.330;43.838;2023-05-19T09:10:57;101107.34;;;24.77;44.45
63946;BME280;50122;56.330;43.838;2023-05-19T09:13:26;101111.88;;;24.67;44.57
63946;BME280;50122;56.330;43.838;2023-05-19T09:15:58;101105.63;;;24.76;45.27
63946;BME280;50122;56.330;43.838;2023-05-19T09:18:27;101100.25;;;25.06;44.38
63946;BME280;50122;56.330;43.838;2023-05-19T09:21:00;101101.81;;;25.47;43.67
63946;BME280;50122;56.330;43.838;2023-05-19T09:23:33;101101.69;;;26.06;42.28
63946;BME280;50122;56.330;43.838;2023-05-19T09:26:06;101094.34;;;26.26;42.84
63946;BME280;50122;56.330;43.838;2023-05-19T09:28:39;101099.56;;;26.38;42.15
63946;BME280;50122;56.330;43.838;2023-05-19T09:31:09;101094.31;;;26.54;41.26
63946;BME280;50122;56.330;43.838;2023-05-19T09:33:40;101095.22;;;26.73;40.37
63946;BME280;50122;56.330;43.838;2023-05-19T09:36:14;101082.03;;;27.14;40.23
63946;BME280;50122;56.330;43.838;2023-05-19T09:38:44;101085.59;;;28.03;37.45
63946;BME280;50122;56.330;43.838;2023-05-19T09:41:13;101085.09;;;28.07;37.44
63946;BME280;50122;56.330;43.838;2023-05-19T09:43:53;101082.66;;;28.31;36.34
63946;BME280;50122;56.330;43.838;2023-05-19T09:46:28;101083.41;;;28.49;36.10
63946;BME280;50122;56.330;43.838;2023-05-19T09:49:12;101089.56;;;28.17;35.54
63946;BME280;50122;56.330;43.838;2023-05-19T09:51:44;101094.91;;;27.74;36.54
63946;BME280;50122;56.330;43.838;2023-05-19T09:54:16;101089.66;;;27.99;35.81
63946;BME280;50122;56.330;43.838;2023-05-19T09:56:43;101091.44;;;28.16;35.03
63946;BME280;50122;56.330;43.838;2023-05-19T09:59:14;101082.44;;;28.67;34.53
63946;BME280;50122;56.330;43.838;2023-05-19T10:01:41;101084.41;;;29.24;33.89
63946;BME280;50122;56.330;43.838;2023-05-19T10:04:16;101096.28;;;29.48;33.13
63946;BME280;50122;56.330;43.838;2023-05-19T10:06:51;101096.16;;;29.33;32.55
63946;BME280;50122;56.330;43.838;2023-05-19T10:09:24;101099.34;;;29.11;33.33
63946;BME280;50122;56.330;43.838;2023-05-19T10:11:52;101080.47;;;29.35;32.37
63946;BME280;50122;56.330;43.838;2023-05-19T10:14:24;101089.13;;;29.55;32.48
63946;BME280;50122;56.330;43.838;2023-05-19T10:16:54;101092.41;;;30.14;31.25
63946;BME280;50122;56.330;43.838;2023-05-19T10:19:23;101098.50;;;29.69;31.59
63946;BME280;50122;56.330;43.838;2023-05-19T10:21:50;101086.06;;;29.08;32.43
63946;BME280;50122;56.330;43.838;2023-05-19T10:24:18;101098.81;;;28.91;32.42
63946;BME280;50122;56.330;43.838;2023-05-19T10:26:58;101093.97;;;30.09;31.04
63946;BME280;50122;56.330;43.838;2023-05-19T10:29:31;101092.03;;;30.65;30.26
63946;BME280;50122;56.330;43.838;2023-05-19T10:32:03;101088.00;;;31.46;28.41
63946;BME280;50122;56.330;43.838;2023-05-19T10:37:44;101079.97;;;33.50;26.32
63946;BME280;50122;56.330;43.838;2023-05-19T10:40:25;101079.75;;;34.15;25.87
63946;BME280;50122;56.330;43.838;2023-05-19T10:45:35;101081.44;;;32.45;27.87
63946;BME280;50122;56.330;43.838;2023-05-19T10:48:12;101081.28;;;31.72;27.85
63946;BME280;50122;56.330;43.838;2023-05-19T10:50:39;101084.25;;;30.54;30.26
63946;BME280;50122;56.330;43.838;2023-05-19T10:53:13;101087.00;;;30.46;30.46
63946;BME280;50122;56.330;43.838;2023-05-19T10:55:44;101078.88;;;30.92;29.75
63946;BME280;50122;56.330;43.838;2023-05-19T10:58:12;101078.34;;;31.58;28.63
63946;BME280;50122;56.330;43.838;2023-05-19T11:00:39;101075.72;;;32.25;28.00
63946;BME280;50122;56.330;43.838;2023-05-19T11:03:13;101072.91;;;32.69;27.39
63946;BME280;50122;56.330;43.838;2023-05-19T11:05:41;101085.59;;;32.41;28.28
63946;BME280;50122;56.330;43.838;2023-05-19T11:08:11;101085.03;;;31.71;27.99
63946;BME280;50122;56.330;43.838;2023-05-19T11:10:38;101080.53;;;31.78;28.52
63946;BME280;50122;56.330;43.838;2023-05-19T11:13:18;101089.03;;;31.68;28.73
63946;BME280;50122;56.330;43.838;2023-05-19T11:15:48;101098.53;;;30.56;30.30
63946;BME280;50122;56.330;43.838;2023-05-19T11:18:15;101092.09;;;30.09;31.02
63946;BME280;50122;56.330;43.838;2023-05-19T11:20:42;101099.03;;;29.48;31.51
63946;BME280;50122;56.330;43.838;2023-05-19T11:23:14;101093.38;;;29.00;32.36
63946;BME280;50122;56.330;43.838;2023-05-19T11:25:49;101085.69;;;28.70;33.35
63946;BME280;50122;56.330;43.838;2023-05-19T11:28:18;101079.16;;;28.55;34.75
63946;BME280;50122;56.330;43.838;2023-05-19T11:30:46;101083.31;;;28.67;34.77
63946;BME280;50122;56.330;43.838;2023-05-19T11:33:16;101092.00;;;28.79;34.67
63946;BME280;50122;56.330;43.838;2023-05-19T11:35:46;101090.88;;;28.55;35.06
63946;BME280;50122;56.330;43.838;2023-05-19T11:38:13;101092.63;;;28.22;35.88
63946;BME280;50122;56.330;43.838;2023-05-19T11:40:42;101086.72;;;28.27;36.03
63946;BME280;50122;56.330;43.838;2023-05-19T11:43:10;101089.78;;;28.32;36.11
63946;BME280;50122;56.330;43.838;2023-05-19T11:45:37;101084.94;;;28.09;36.76
63946;BME280;50122;56.330;43.838;2023-05-19T11:48:04;101093.44;;;27.53;36.97
63946;BME280;50122;56.330;43.838;2023-05-19T11:50:31;101093.59;;;26.98;38.68
63946;BME280;50122;56.330;43.838;2023-05-19T11:52:59;101102.22;;;26.75;39.42
63946;BME280;50122;56.330;43.838;2023-05-19T11:55:26;101098.19;;;26.51;40.19
63946;BME280;50122;56.330;43.838;2023-05-19T12:00:34;101114.19;;;26.17;41.27
63946;BME280;50122;56.330;43.838;2023-05-19T12:03:09;101116.31;;;25.66;42.16
63946;BME280;50122;56.330;43.838;2023-05-19T12:05:39;101141.97;;;25.23;44.22
63946;BME280;50122;56.330;43.838;2023-05-19T12:08:10;101126.66;;;24.63;45.41
63946;BME280;50122;56.330;43.838;2023-05-19T12:10:37;101132.53;;;24.37;46.46
63946;BME280;50122;56.330;43.838;2023-05-19T12:13:05;101132.72;;;24.15;46.55
63946;BME280;50122;56.330;43.838;2023-05-19T12:15:34;101148.81;;;23.95;47.26
63946;BME280;50122;56.330;43.838;2023-05-19T12:18:02;101160.34;;;23.97;47.49
63946;BME280;50122;56.330;43.838;2023-05-19T12:20:29;101158.69;;;23.85;47.22
63946;BME280;50122;56.330;43.838;2023-05-19T12:22:59;101178.34;;;23.22;48.07
63946;BME280;50122;56.330;43.838;2023-05-19T12:25:27;101184.31;;;22.70;49.27
63946;BME280;50122;56.330;43.838;2023-05-19T12:28:00;101191.34;;;22.50;49.75
63946;BME280;50122;56.330;43.838;2023-05-19T12:30:31;101204.13;;;22.24;49.80
63946;BME280;50122;56.330;43.838;2023-05-19T12:33:00;101213.00;;;21.91;50.51
63946;BME280;50122;56.330;43.838;2023-05-19T12:35:29;101217.44;;;21.43;51.88
63946;BME280;50122;56.330;43.838;2023-05-19T12:38:02;101218.56;;;21.04;52.62
63946;BME280;50122;56.330;43.838;2023-05-19T12:40:29;101218.72;;;20.89;52.82
63946;BME280;50122;56.330;43.838;2023-05-19T12:42:56;101216.06;;;20.76;52.89
63946;BME280;50122;56.330;43.838;2023-05-19T12:45:25;101216.72;;;20.28;54.29
63946;BME280;50122;56.330;43.838;2023-05-19T12:47:54;101243.97;;;19.97;54.58
63946;BME280;50122;56.330;43.838;2023-05-19T12:50:28;101244.19;;;19.39;56.20
63946;BME280;50122;56.330;43.838;2023-05-19T12:52:58;101239.84;;;19.23;56.78
63946;BME280;50122;56.330;43.838;2023-05-19T12:55:25;101235.44;;;19.22;56.91
63946;BME280;50122;56.330;43.838;2023-05-19T12:57:52;101235.34;;;19.24;57.18
63946;BME280;50122;56.330;43.838;2023-05-19T13:00:24;101233.53;;;19.24;56.89
63946;BME280;50122;56.330;43.838;2023-05-19T13:05:36;101253.53;;;19.19;56.98
63946;BME280;50122;56.330;43.838;2023-05-19T13:08:11;101246.19;;;19.08;56.78
63946;BME280;50122;56.330;43.838;2023-05-19T13:10:44;101247.47;;;19.02;57.07
63946;BME280;50122;56.330;43.838;2023-05-19T13:13:12;101252.53;;;18.78;57.68
63946;BME280;50122;56.330;43.838;2023-05-19T13:15:41;101252.72;;;18.46;58.45
63946;BME280;50122;56.330;43.838;2023-05-19T13:18:11;101260.72;;;18.17;59.11
63946;BME280;50122;56.330;43.838;2023-05-19T13:20:42;101251.56;;;17.91;59.92
63946;BME280;50122;56.330;43.838;2023-05-19T13:23:12;101266.47;;;17.79;60.83
63946;BME280;50122;56.330;43.838;2023-05-19T13:25:40;101278.31;;;17.75;60.63
63946;BME280;50122;56.330;43.838;2023-05-19T13:28:08;101293.13;;;17.81;59.67